sensor_id;sensor_type;location;lat;lon;timestamp;pressure;altitude;pressure_sealevel;temperature;humidity
20424;BME280;10371;49.042;8.002;2023-02-21T00:00:34;100417.91;;;6.83;93.96
20424;BME280;10371;49.042;8.002;2023-02-21T00:01:52;100426.56;;;6.82;93.74
20424;BME280;10371;49.042;8.002;2023-02-21T00:03:11;100423.22;;;6.80;93.77
20424;BME280;10371;49.042;8.002;2023-02-21T00:04:30;100418.38;;;6.74;94.03
20424;BME280;10371;49.042;8.002;2023-02-21T00:05:48;100409.03;;;6.71;94.05
20424;BME280;10371;49.042;8.002;2023-02-21T00:07:07;100415.81;;;6.74;94.29
20424;BME280;10371;49.042;8.002;2023-02-21T00:08:26;100423.50;;;6.75;94.39
20424;BME280;10371;49.042;8.002;2023-02-21T00:09:44;100419.31;;;6.72;94.33
20424;BME280;10371;49.042;8.002;2023-02-21T00:11:03;100423.56;;;6.74;94.25
20424;BME280;10371;49.042;8.002;2023-02-21T00:12:22;100422.84;;;6.71;94.26
20424;BME280;10371;49.042;8.002;2023-02-21T00:13:41;100429.84;;;6.69;94.61
20424;BME280;10371;49.042;8.002;2023-02-21T00:14:59;100418.50;;;6.72;94.51
20424;BME280;10371;49.042;8.002;2023-02-21T00:16:18;100421.16;;;6.70;94.37
20424;BME280;10371;49.042;8.002;2023-02-21T00:17:37;100419.38;;;6.71;94.36
20424;BME280;10371;49.042;8.002;2023-02-21T00:18:56;100419.31;;;6.72;94.36
20424;BME280;10371;49.042;8.002;2023-02-21T00:20:14;100410.13;;;6.67;94.73
20424;BME280;10371;49.042;8.002;2023-02-21T00:21:33;100414.31;;;6.69;94.53
20424;BME280;10371;49.042;8.002;2023-02-21T00:22:52;100421.16;;;6.70;94.49
20424;BME280;10371;49.042;8.002;2023-02-21T00:24:16;100423.91;;;6.67;94.54
20424;BME280;10371;49.042;8.002;2023-02-21T00:25:35;100417.06;;;6.66;94.52
20424;BME280;10371;49.042;8.002;2023-02-21T00:26:54;100413.72;;;6.64;94.42
20424;BME280;10371;49.042;8.002;2023-02-21T00:28:12;100412.97;;;6.62;94.36
20424;BME280;10371;49.042;8.002;2023-02-21T00:29:31;100411.97;;;6.65;94.50
20424;BME280;10371;49.042;8.002;2023-02-21T00:30:50;100418.06;;;6.64;94.37
20424;BME280;10371;49.042;8.002;2023-02-21T00:32:09;100426.84;;;6.61;94.08
20424;BME280;10371;49.042;8.002;2023-02-21T00:33:28;100418.41;;;6.58;94.74
20424;BME280;10371;49.042;8.002;2023-02-21T00:34:46;100415.91;;;6.56;94.59
20424;BME280;10371;49.042;8.002;2023-02-21T00:36:05;100417.66;;;6.56;94.77
20424;BME280;10371;49.042;8.002;2023-02-21T00:37:24;100413.25;;;6.58;94.78
20424;BME280;10371;49.042;8.002;2023-02-21T00:38:43;100408.06;;;6.58;94.75
20424;BME280;10371;49.042;8.002;2023-02-21T00:40:02;100397.13;;;6.53;95.09
20424;BME280;10371;49.042;8.002;2023-02-21T00:41:21;100406.31;;;6.58;94.70
20424;BME280;10371;49.042;8.002;2023-02-21T00:42:40;100403.13;;;6.53;94.80
20424;BME280;10371;49.042;8.002;2023-02-21T00:43:59;100406.47;;;6.55;94.80
20424;BME280;10371;49.042;8.002;2023-02-21T00:45:17;100398.78;;;6.54;94.76
20424;BME280;10371;49.042;8.002;2023-02-21T00:46:36;100405.66;;;6.55;95.06
20424;BME280;10371;49.042;8.002;2023-02-21T00:47:55;100404.63;;;6.57;95.00
20424;BME280;10371;49.042;8.002;2023-02-21T00:49:14;100402.13;;;6.56;94.80
20424;BME280;10371;49.042;8.002;2023-02-21T00:50:33;100400.13;;;6.61;94.70
20424;BME280;10371;49.042;8.002;2023-02-21T00:51:52;100401.63;;;6.65;94.84
20424;BME280;10371;49.042;8.002;2023-02-21T00:53:11;100399.13;;;6.63;94.70
20424;BME280;10371;49.042;8.002;2023-02-21T00:54:30;100399.88;;;6.65;94.74
20424;BME280;10371;49.042;8.002;2023-02-21T00:55:49;100401.44;;;6.68;94.25
20424;BME280;10371;49.042;8.002;2023-02-21T00:57:08;100387.63;;;6.69;94.20
20424;BME280;10371;49.042;8.002;2023-02-21T00:58:27;100397.84;;;6.70;94.12
20424;BME280;10371;49.042;8.002;2023-02-21T00:59:45;100389.09;;;6.73;94.12
20424;BME280;10371;49.042;8.002;2023-02-21T01:01:04;100383.16;;;6.71;94.22
20424;BME280;10371;49.042;8.002;2023-02-21T01:02:23;100388.28;;;6.72;93.92
20424;BME280;10371;49.042;8.002;2023-02-21T01:03:41;100386.63;;;6.71;93.89
20424;BME280;10371;49.042;8.002;2023-02-21T01:05:01;100384.28;;;6.67;93.94
20424;BME280;10371;49.042;8.002;2023-02-21T01:06:19;100381.75;;;6.65;93.87
20424;BME280;10371;49.042;8.002;2023-02-21T01:07:38;100383.25;;;6.69;94.16
20424;BME280;10371;49.042;8.002;2023-02-21T01:08:57;100376.41;;;6.68;94.08
20424;BME280;10371;49.042;8.002;2023-02-21T01:10:16;100373.91;;;6.67;94.28
20424;BME280;10371;49.042;8.002;2023-02-21T01:11:35;100379.00;;;6.68;94.38
20424;BME280;10371;49.042;8.002;2023-02-21T01:12:53;100372.91;;;6.69;94.07
20424;BME280;10371;49.042;8.002;2023-02-21T01:14:13;100372.75;;;6.72;94.16
20424;BME280;10371;49.042;8.002;2023-02-21T01:15:32;100366.16;;;6.67;94.32
20424;BME280;10371;49.042;8.002;2023-02-21T01:16:50;100378.00;;;6.71;93.95
20424;BME280;10371;49.042;8.002;2023-02-21T01:18:10;100377.25;;;6.69;94.37
20424;BME280;10371;49.042;8.002;2023-02-21T01:19:28;100377.09;;;6.72;94.23
20424;BME280;10371;49.042;8.002;2023-02-21T01:20:47;100372.91;;;6.69;94.35
20424;BME280;10371;49.042;8.002;2023-02-21T01:22:06;100378.84;;;6.71;94.46
20424;BME280;10371;49.042;8.002;2023-02-21T01:23:25;100364.22;;;6.70;94.20
20424;BME280;10371;49.042;8.002;2023-02-21T01:24:43;100367.56;;;6.72;94.39
20424;BME280;10371;49.042;8.002;2023-02-21T01:26:02;100373.75;;;6.70;94.39
20424;BME280;10371;49.042;8.002;2023-02-21T01:27:20;100366.75;;;6.72;94.67
20424;BME280;10371;49.042;8.002;2023-02-21T01:28:39;100365.81;;;6.73;94.60
20424;BME280;10371;49.042;8.002;2023-02-21T01:29:58;100364.06;;;6.74;94.69
20424;BME280;10371;49.042;8.002;2023-02-21T01:31:18;100377.56;;;6.79;94.56
20424;BME280;10371;49.042;8.002;2023-02-21T01:32:37;100374.97;;;6.79;94.52
20424;BME280;10371;49.042;8.002;2023-02-21T01:33:55;100370.81;;;6.76;94.38
20424;BME280;10371;49.042;8.002;2023-02-21T01:35:14;100370.91;;;6.75;94.37
20424;BME280;10371;49.042;8.002;2023-02-21T01:36:33;100374.56;;;6.70;94.75
20424;BME280;10371;49.042;8.002;2023-02-21T01:37:51;100371.22;;;6.68;94.64
20424;BME280;10371;49.042;8.002;2023-02-21T01:39:10;100375.41;;;6.71;95.04
20424;BME280;10371;49.042;8.002;2023-02-21T01:40:30;100365.06;;;6.71;94.89
20424;BME280;10371;49.042;8.002;2023-02-21T01:41:48;100369.41;;;6.70;95.13
20424;BME280;10371;49.042;8.002;2023-02-21T01:43:15;100367.56;;;6.72;94.88
20424;BME280;10371;49.042;8.002;2023-02-21T01:44:36;100369.41;;;6.70;95.23
20424;BME280;10371;49.042;8.002;2023-02-21T01:45:54;100365.06;;;6.71;95.00
20424;BME280;10371;49.042;8.002;2023-02-21T01:47:13;100365.06;;;6.71;95.35
20424;BME280;10371;49.042;8.002;2023-02-21T01:48:33;100357.28;;;6.71;95.20
20424;BME280;10371;49.042;8.002;2023-02-21T01:49:52;100355.56;;;6.71;95.37
20424;BME280;10371;49.042;8.002;2023-02-21T01:51:13;100353.22;;;6.67;95.27
20424;BME280;10371;49.042;8.002;2023-02-21T01:52:34;100352.41;;;6.66;95.40
20424;BME280;10371;49.042;8.002;2023-02-21T01:53:53;100348.81;;;6.69;95.36
20424;BME280;10371;49.042;8.002;2023-02-21T01:55:13;100338.69;;;6.64;95.36
20424;BME280;10371;49.042;8.002;2023-02-21T01:56:32;100345.34;;;6.68;95.40
20424;BME280;10371;49.042;8.002;2023-02-21T01:57:53;100347.88;;;6.70;95.30
20424;BME280;10371;49.042;8.002;2023-02-21T01:59:13;100343.06;;;6.64;95.34
20424;BME280;10371;49.042;8.002;2023-02-21T02:00:33;100352.41;;;6.66;95.26
20424;BME280;10371;49.042;8.002;2023-02-21T02:02:00;100344.63;;;6.66;95.69
20424;BME280;10371;49.042;8.002;2023-02-21T02:03:21;100346.13;;;6.70;95.73
20424;BME280;10371;49.042;8.002;2023-02-21T02:04:40;100349.81;;;6.66;95.65
20424;BME280;10371;49.042;8.002;2023-02-21T02:06:04;100352.41;;;6.66;95.60
20424;BME280;10371;49.042;8.002;2023-02-21T02:07:24;100349.88;;;6.65;96.14
20424;BME280;10371;49.042;8.002;2023-02-21T02:08:43;100347.22;;;6.66;95.83
20424;BME280;10371;49.042;8.002;2023-02-21T02:10:02;100336.28;;;6.61;95.97
20424;BME280;10371;49.042;8.002;2023-02-21T02:14:27;100343.88;;;6.64;96.00
20424;BME280;10371;49.042;8.002;2023-02-21T02:15:48;100342.41;;;6.60;95.84
20424;BME280;10371;49.042;8.002;2023-02-21T02:17:18;100346.81;;;6.58;96.22
20424;BME280;10371;49.042;8.002;2023-02-21T02:18:45;100340.06;;;6.56;96.27
20424;BME280;10371;49.042;8.002;2023-02-21T02:20:32;100335.88;;;6.53;96.47
20424;BME280;10371;49.042;8.002;2023-02-21T02:23:03;100342.97;;;6.49;96.55
20424;BME280;10371;49.042;8.002;2023-02-21T02:29:35;100341.16;;;6.36;97.14
20424;BME280;10371;49.042;8.002;2023-02-21T02:35:53;100337.88;;;6.32;97.58
20424;BME280;10371;49.042;8.002;2023-02-21T02:38:22;100348.31;;;6.31;97.88
20424;BME280;10371;49.042;8.002;2023-02-21T02:43:51;100339.38;;;6.20;98.24
20424;BME280;10371;49.042;8.002;2023-02-21T02:45:05;100349.66;;;6.22;98.45
20424;BME280;10371;49.042;8.002;2023-02-21T02:47:22;100341.06;;;6.21;98.72
20424;BME280;10371;49.042;8.002;2023-02-21T02:49:29;100342.91;;;6.19;98.72
20424;BME280;10371;49.042;8.002;2023-02-21T02:50:33;100338.72;;;6.17;98.96
20424;BME280;10371;49.042;8.002;2023-02-21T02:51:33;100338.91;;;6.14;98.81
20424;BME280;10371;49.042;8.002;2023-02-21T02:52:35;100343.97;;;6.15;98.70
20424;BME280;10371;49.042;8.002;2023-02-21T02:53:35;100341.66;;;6.11;99.05
20424;BME280;10371;49.042;8.002;2023-02-21T02:54:36;100340.06;;;6.08;98.94
20424;BME280;10371;49.042;8.002;2023-02-21T02:55:45;100345.22;;;6.08;99.07
20424;BME280;10371;49.042;8.002;2023-02-21T02:56:47;100344.72;;;6.01;99.16
20424;BME280;10371;49.042;8.002;2023-02-21T02:57:49;100343.13;;;5.99;98.77
20424;BME280;10371;49.042;8.002;2023-02-21T02:59:54;100337.66;;;5.88;99.09
20424;BME280;10371;49.042;8.002;2023-02-21T03:01:11;100341.94;;;5.89;99.36
20424;BME280;10371;49.042;8.002;2023-02-21T03:02:33;100343.84;;;5.85;99.56
20424;BME280;10371;49.042;8.002;2023-02-21T03:03:45;100332.38;;;5.73;99.60
20424;BME280;10371;49.042;8.002;2023-02-21T03:05:02;100344.91;;;5.81;99.84
20424;BME280;10371;49.042;8.002;2023-02-21T03:08:07;100348.66;;;5.75;99.91
20424;BME280;10371;49.042;8.002;2023-02-21T03:09:18;100346.28;;;5.71;100.00
20424;BME280;10371;49.042;8.002;2023-02-21T03:10:29;100346.22;;;5.72;100.00
20424;BME280;10371;49.042;8.002;2023-02-21T03:11:33;100347.16;;;5.71;100.00
20424;BME280;10371;49.042;8.002;2023-02-21T03:12:48;100348.97;;;5.69;100.00
20424;BME280;10371;49.042;8.002;2023-02-21T03:14:13;100349.88;;;5.68;100.00
20424;BME280;10371;49.042;8.002;2023-02-21T03:15:24;100350.78;;;5.67;100.00
20424;BME280;10371;49.042;8.002;2023-02-21T03:16:33;100351.78;;;5.65;100.00
20424;BME280;10371;49.042;8.002;2023-02-21T03:17:39;100350.03;;;5.65;100.00
20424;BME280;10371;49.042;8.002;2023-02-21T03:18:47;100356.13;;;5.64;100.00
20424;BME280;10371;49.042;8.002;2023-02-21T03:19:49;100356.19;;;5.63;100.00
20424;BME280;10371;49.042;8.002;2023-02-21T03:20:57;100355.44;;;5.60;100.00
20424;BME280;10371;49.042;8.002;2023-02-21T03:22:01;100342.84;;;5.54;100.00
20424;BME280;10371;49.042;8.002;2023-02-21T03:23:05;100351.44;;;5.55;100.00
20424;BME280;10371;49.042;8.002;2023-02-21T03:24:07;100349.75;;;5.54;100.00
20424;BME280;10371;49.042;8.002;2023-02-21T03:25:09;100348.25;;;5.50;100.00
20424;BME280;10371;49.042;8.002;2023-02-21T03:26:12;100344.06;;;5.47;100.00
20424;BME280;10371;49.042;8.002;2023-02-21T03:27:14;100345.97;;;5.44;100.00
20424;BME280;10371;49.042;8.002;2023-02-21T03:28:16;100350.38;;;5.42;100.00
20424;BME280;10371;49.042;8.002;2023-02-21T03:29:18;100349.72;;;5.38;100.00
20424;BME280;10371;49.042;8.002;2023-02-21T03:30:19;100345.53;;;5.35;100.00
20424;BME280;10371;49.042;8.002;2023-02-21T03:31:23;100342.19;;;5.33;100.00
20424;BME280;10371;49.042;8.002;2023-02-21T03:32:30;100338.94;;;5.30;100.00
20424;BME280;10371;49.042;8.002;2023-02-21T03:33:32;100344.00;;;5.31;100.00
20424;BME280;10371;49.042;8.002;2023-02-21T03:34:32;100335.53;;;5.29;100.00
20424;BME280;10371;49.042;8.002;2023-02-21T03:35:33;100338.09;;;5.29;100.00
20424;BME280;10371;49.042;8.002;2023-02-21T03:36:36;100340.81;;;5.26;100.00
20424;BME280;10371;49.042;8.002;2023-02-21T03:37:39;100340.09;;;5.24;100.00
20424;BME280;10371;49.042;8.002;2023-02-21T03:38:40;100343.66;;;5.22;100.00
20424;BME280;10371;49.042;8.002;2023-02-21T03:39:40;100340.47;;;5.17;100.00
20424;BME280;10371;49.042;8.002;2023-02-21T03:40:40;100344.94;;;5.13;100.00
20424;BME280;10371;49.042;8.002;2023-02-21T03:41:41;100348.56;;;5.09;100.00
20424;BME280;10371;49.042;8.002;2023-02-21T03:42:41;100347.75;;;5.08;100.00
20424;BME280;10371;49.042;8.002;2023-02-21T03:43:41;100358.13;;;5.07;100.00
20424;BME280;10371;49.042;8.002;2023-02-21T03:44:42;100350.53;;;5.04;100.00
20424;BME280;10371;49.042;8.002;2023-02-21T03:45:42;100351.63;;;5.00;100.00
20424;BME280;10371;49.042;8.002;2023-02-21T03:46:42;100352.66;;;4.96;100.00
20424;BME280;10371;49.042;8.002;2023-02-21T03:47:42;100348.41;;;4.95;100.00
20424;BME280;10371;49.042;8.002;2023-02-21T03:48:43;100351.97;;;4.92;100.00
20424;BME280;10371;49.042;8.002;2023-02-21T03:49:43;100355.53;;;4.89;100.00
20424;BME280;10371;49.042;8.002;2023-02-21T03:50:44;100355.69;;;4.86;100.00
20424;BME280;10371;49.042;8.002;2023-02-21T03:51:44;100356.63;;;4.85;100.00
20424;BME280;10371;49.042;8.002;2023-02-21T03:52:44;100358.47;;;4.82;100.00
20424;BME280;10371;49.042;8.002;2023-02-21T03:53:45;100362.06;;;4.79;100.00
20424;BME280;10371;49.042;8.002;2023-02-21T03:54:45;100360.53;;;4.75;100.00
20424;BME280;10371;49.042;8.002;2023-02-21T03:55:45;100350.44;;;4.70;100.00
20424;BME280;10371;49.042;8.002;2023-02-21T03:56:45;100358.16;;;4.70;100.00
20424;BME280;10371;49.042;8.002;2023-02-21T03:57:46;100350.53;;;4.69;100.00
20424;BME280;10371;49.042;8.002;2023-02-21T03:58:46;100357.44;;;4.68;100.00
20424;BME280;10371;49.042;8.002;2023-02-21T03:59:46;100345.50;;;4.66;100.00
20424;BME280;10371;49.042;8.002;2023-02-21T04:00:47;100348.25;;;4.63;100.00
20424;BME280;10371;49.042;8.002;2023-02-21T04:01:47;100353.41;;;4.63;100.00
20424;BME280;10371;49.042;8.002;2023-02-21T04:02:47;100354.28;;;4.62;100.00
20424;BME280;10371;49.042;8.002;2023-02-21T04:03:49;100352.63;;;4.61;100.00
20424;BME280;10371;49.042;8.002;2023-02-21T04:04:49;100344.25;;;4.56;100.00
20424;BME280;10371;49.042;8.002;2023-02-21T04:05:49;100354.44;;;4.59;100.00
20424;BME280;10371;49.042;8.002;2023-02-21T04:06:50;100357.09;;;4.57;100.00
20424;BME280;10371;49.042;8.002;2023-02-21T04:07:50;100349.41;;;4.56;100.00
20424;BME280;10371;49.042;8.002;2023-02-21T04:08:50;100349.41;;;4.56;100.00
20424;BME280;10371;49.042;8.002;2023-02-21T04:09:51;100342.66;;;4.53;100.00
20424;BME280;10371;49.042;8.002;2023-02-21T04:10:51;100352.09;;;4.54;100.00
20424;BME280;10371;49.042;8.002;2023-02-21T04:11:51;100347.75;;;4.55;100.00
20424;BME280;10371;49.042;8.002;2023-02-21T04:12:52;100353.94;;;4.51;100.00
20424;BME280;10371;49.042;8.002;2023-02-21T04:13:52;100348.94;;;4.47;100.00
20424;BME280;10371;49.042;8.002;2023-02-21T04:14:52;100356.00;;;4.44;100.00
20424;BME280;10371;49.042;8.002;2023-02-21T04:15:55;100348.47;;;4.39;100.00
20424;BME280;10371;49.042;8.002;2023-02-21T04:16:55;100346.66;;;4.41;100.00
20424;BME280;10371;49.042;8.002;2023-02-21T04:17:55;100354.53;;;4.38;100.00
20424;BME280;10371;49.042;8.002;2023-02-21T04:18:56;100351.97;;;4.38;100.00
20424;BME280;10371;49.042;8.002;2023-02-21T04:19:57;100351.19;;;4.36;100.00
20424;BME280;10371;49.042;8.002;2023-02-21T04:20:57;100344.44;;;4.34;100.00
20424;BME280;10371;49.042;8.002;2023-02-21T04:21:58;100346.13;;;4.35;100.00
20424;BME280;10371;49.042;8.002;2023-02-21T04:22:58;100345.25;;;4.34;100.00
20424;BME280;10371;49.042;8.002;2023-02-21T04:23:59;100340.25;;;4.31;100.00
20424;BME280;10371;49.042;8.002;2023-02-21T04:24:59;100348.75;;;4.33;100.00
20424;BME280;10371;49.042;8.002;2023-02-21T04:25:59;100347.09;;;4.32;100.00
20424;BME280;10371;49.042;8.002;2023-02-21T04:26:59;100338.59;;;4.30;100.00
20424;BME280;10371;49.042;8.002;2023-02-21T04:28:01;100345.41;;;4.31;100.00
20424;BME280;10371;49.042;8.002;2023-02-21T04:29:02;100348.91;;;4.30;100.00
20424;BME280;10371;49.042;8.002;2023-02-21T04:30:02;100346.38;;;4.29;100.00
20424;BME280;10371;49.042;8.002;2023-02-21T04:31:03;100342.09;;;4.29;100.00
20424;BME280;10371;49.042;8.002;2023-02-21T04:32:03;100344.72;;;4.28;100.00
20424;BME280;10371;49.042;8.002;2023-02-21T04:33:03;100347.34;;;4.26;100.00
20424;BME280;10371;49.042;8.002;2023-02-21T04:34:04;100344.78;;;4.26;100.00
20424;BME280;10371;49.042;8.002;2023-02-21T04:35:04;100350.94;;;4.23;100.00
20424;BME280;10371;49.042;8.002;2023-02-21T04:36:05;100347.44;;;4.24;100.00
20424;BME280;10371;49.042;8.002;2023-02-21T04:37:05;100352.03;;;4.18;100.00
20424;BME280;10371;49.042;8.002;2023-02-21T04:38:05;100356.56;;;4.13;100.00
20424;BME280;10371;49.042;8.002;2023-02-21T04:39:06;100356.13;;;4.03;100.00
20424;BME280;10371;49.042;8.002;2023-02-21T04:40:07;100362.25;;;4.00;100.00
20424;BME280;10371;49.042;8.002;2023-02-21T04:41:07;100362.53;;;3.94;100.00
20424;BME280;10371;49.042;8.002;2023-02-21T04:42:08;100359.31;;;3.89;100.00
20424;BME280;10371;49.042;8.002;2023-02-21T04:43:08;100359.41;;;3.88;100.00
20424;BME280;10371;49.042;8.002;2023-02-21T04:44:08;100360.38;;;3.85;100.00
20424;BME280;10371;49.042;8.002;2023-02-21T04:45:09;100361.22;;;3.86;100.00
20424;BME280;10371;49.042;8.002;2023-02-21T04:46:14;100364.63;;;3.86;100.00
20424;BME280;10371;49.042;8.002;2023-02-21T04:47:15;100368.94;;;3.86;100.00
20424;BME280;10371;49.042;8.002;2023-02-21T04:48:15;100363.84;;;3.84;100.00
20424;BME280;10371;49.042;8.002;2023-02-21T04:49:16;100368.16;;;3.84;100.00
20424;BME280;10371;49.042;8.002;2023-02-21T04:50:18;100360.66;;;3.79;100.00
20424;BME280;10371;49.042;8.002;2023-02-21T04:51:21;100360.66;;;3.79;100.00
20424;BME280;10371;49.042;8.002;2023-02-21T04:52:22;100356.84;;;3.67;100.00
20424;BME280;10371;49.042;8.002;2023-02-21T04:53:22;100361.81;;;3.72;100.00
20424;BME280;10371;49.042;8.002;2023-02-21T04:54:22;100363.47;;;3.73;100.00
20424;BME280;10371;49.042;8.002;2023-02-21T04:55:23;100355.00;;;3.71;100.00
20424;BME280;10371;49.042;8.002;2023-02-21T04:56:25;100359.09;;;3.75;100.00
20424;BME280;10371;49.042;8.002;2023-02-21T04:57:26;100361.69;;;3.75;100.00
20424;BME280;10371;49.042;8.002;2023-02-21T04:58:26;100356.91;;;3.86;100.00
20424;BME280;10371;49.042;8.002;2023-02-21T04:59:27;100356.69;;;3.91;100.00
20424;BME280;10371;49.042;8.002;2023-02-21T05:00:27;100350.34;;;3.98;100.00
20424;BME280;10371;49.042;8.002;2023-02-21T05:01:28;100355.16;;;4.06;100.00
20424;BME280;10371;49.042;8.002;2023-02-21T05:02:30;100353.84;;;4.16;100.00
20424;BME280;10371;49.042;8.002;2023-02-21T05:03:30;100354.69;;;4.16;100.00
20424;BME280;10371;49.042;8.002;2023-02-21T05:04:30;100352.66;;;4.23;100.00
20424;BME280;10371;49.042;8.002;2023-02-21T05:05:31;100352.31;;;4.12;100.00
20424;BME280;10371;49.042;8.002;2023-02-21T05:06:31;100346.28;;;4.13;100.00
20424;BME280;10371;49.042;8.002;2023-02-21T05:07:31;100349.19;;;4.24;100.00
20424;BME280;10371;49.042;8.002;2023-02-21T05:08:32;100344.88;;;4.24;100.00
20424;BME280;10371;49.042;8.002;2023-02-21T05:09:32;100342.97;;;4.28;100.00
20424;BME280;10371;49.042;8.002;2023-02-21T05:10:32;100343.59;;;4.33;100.00
20424;BME280;10371;49.042;8.002;2023-02-21T05:11:33;100341.84;;;4.34;100.00
20424;BME280;10371;49.042;8.002;2023-02-21T05:12:34;100337.31;;;4.39;100.00
20424;BME280;10371;49.042;8.002;2023-02-21T05:13:36;100349.28;;;4.40;100.00
20424;BME280;10371;49.042;8.002;2023-02-21T05:14:37;100350.34;;;4.36;100.00
20424;BME280;10371;49.042;8.002;2023-02-21T05:15:38;100342.47;;;4.39;100.00
20424;BME280;10371;49.042;8.002;2023-02-21T05:16:38;100347.69;;;4.37;100.00
20424;BME280;10371;49.042;8.002;2023-02-21T05:17:38;100342.78;;;4.33;100.00
20424;BME280;10371;49.042;8.002;2023-02-21T05:18:42;100339.56;;;4.28;100.00
20424;BME280;10371;49.042;8.002;2023-02-21T05:19:45;100345.69;;;4.25;100.00
20424;BME280;10371;49.042;8.002;2023-02-21T05:20:45;100341.38;;;4.25;100.00
20424;BME280;10371;49.042;8.002;2023-02-21T05:21:46;100343.25;;;4.22;100.00
20424;BME280;10371;49.042;8.002;2023-02-21T05:22:47;100347.66;;;4.20;100.00
20424;BME280;10371;49.042;8.002;2023-02-21T05:23:47;100333.16;;;4.17;100.00
20424;BME280;10371;49.042;8.002;2023-02-21T05:24:56;100334.13;;;4.15;100.00
20424;BME280;10371;49.042;8.002;2023-02-21T05:25:57;100337.63;;;4.14;100.00
20424;BME280;10371;49.042;8.002;2023-02-21T05:26:58;100330.03;;;4.11;100.00
20424;BME280;10371;49.042;8.002;2023-02-21T05:27:58;100331.06;;;4.07;100.00
20424;BME280;10371;49.042;8.002;2023-02-21T05:28:59;100328.03;;;3.98;100.00
20424;BME280;10371;49.042;8.002;2023-02-21T05:29:59;100327.53;;;3.90;100.00
20424;BME280;10371;49.042;8.002;2023-02-21T05:30:59;100320.19;;;3.81;100.00
20424;BME280;10371;49.042;8.002;2023-02-21T05:31:59;100328.16;;;3.76;100.00
20424;BME280;10371;49.042;8.002;2023-02-21T05:33:00;100323.25;;;3.70;100.00
20424;BME280;10371;49.042;8.002;2023-02-21T05:34:00;100329.13;;;3.74;100.00
20424;BME280;10371;49.042;8.002;2023-02-21T05:35:00;100342.88;;;3.73;100.00
20424;BME280;10371;49.042;8.002;2023-02-21T05:36:01;100324.25;;;3.68;100.00
20424;BME280;10371;49.042;8.002;2023-02-21T05:37:01;100332.84;;;3.67;100.00
20424;BME280;10371;49.042;8.002;2023-02-21T05:38:01;100338.16;;;3.64;100.00
20424;BME280;10371;49.042;8.002;2023-02-21T05:39:03;100334.78;;;3.62;100.00
20424;BME280;10371;49.042;8.002;2023-02-21T05:40:04;100335.84;;;3.57;100.00
20424;BME280;10371;49.042;8.002;2023-02-21T05:41:05;100334.94;;;3.58;100.00
20424;BME280;10371;49.042;8.002;2023-02-21T05:42:05;100336.63;;;3.60;100.00
20424;BME280;10371;49.042;8.002;2023-02-21T05:43:06;100333.19;;;3.59;100.00
20424;BME280;10371;49.042;8.002;2023-02-21T05:44:07;100335.06;;;3.55;100.00
20424;BME280;10371;49.042;8.002;2023-02-21T05:45:08;100333.66;;;3.48;100.00
20424;BME280;10371;49.042;8.002;2023-02-21T05:46:16;100335.34;;;3.49;100.00
20424;BME280;10371;49.042;8.002;2023-02-21T05:47:17;100334.63;;;3.46;100.00
20424;BME280;10371;49.042;8.002;2023-02-21T05:48:17;100339.91;;;3.43;100.00
20424;BME280;10371;49.042;8.002;2023-02-21T05:49:18;100338.31;;;3.40;100.00
20424;BME280;10371;49.042;8.002;2023-02-21T05:50:18;100346.13;;;3.37;100.00
20424;BME280;10371;49.042;8.002;2023-02-21T05:51:19;100338.53;;;3.34;100.00
20424;BME280;10371;49.042;8.002;2023-02-21T05:52:19;100339.59;;;3.30;100.00
20424;BME280;10371;49.042;8.002;2023-02-21T05:53:19;100331.22;;;3.25;100.00
20424;BME280;10371;49.042;8.002;2023-02-21T05:54:20;100337.28;;;3.24;100.00
20424;BME280;10371;49.042;8.002;2023-02-21T05:55:21;100340.94;;;3.18;100.00
20424;BME280;10371;49.042;8.002;2023-02-21T05:56:21;100344.47;;;3.16;100.00
20424;BME280;10371;49.042;8.002;2023-02-21T05:57:21;100332.72;;;3.10;100.00
20424;BME280;10371;49.042;8.002;2023-02-21T05:58:21;100343.84;;;3.10;100.00
20424;BME280;10371;49.042;8.002;2023-02-21T05:59:22;100349.09;;;3.07;100.00
20424;BME280;10371;49.042;8.002;2023-02-21T06:00:25;100354.50;;;3.01;100.00
20424;BME280;10371;49.042;8.002;2023-02-21T06:01:27;100353.31;;;2.88;100.00
20424;BME280;10371;49.042;8.002;2023-02-21T06:02:27;100357.63;;;2.87;100.00
20424;BME280;10371;49.042;8.002;2023-02-21T06:03:27;100355.06;;;2.87;100.00
20424;BME280;10371;49.042;8.002;2023-02-21T06:04:27;100344.25;;;2.79;100.00
20424;BME280;10371;49.042;8.002;2023-02-21T06:05:28;100356.06;;;2.83;100.00
20424;BME280;10371;49.042;8.002;2023-02-21T06:06:28;100351.06;;;2.80;100.00
20424;BME280;10371;49.042;8.002;2023-02-21T06:07:28;100354.59;;;2.78;100.00
20424;BME280;10371;49.042;8.002;2023-02-21T06:08:28;100344.38;;;2.76;100.00
20424;BME280;10371;49.042;8.002;2023-02-21T06:09:29;100340.19;;;2.74;100.00
20424;BME280;10371;49.042;8.002;2023-02-21T06:10:30;100344.50;;;2.73;100.00
20424;BME280;10371;49.042;8.002;2023-02-21T06:11:32;100337.91;;;2.66;100.00
20424;BME280;10371;49.042;8.002;2023-02-21T06:12:32;100352.38;;;2.68;100.00
20424;BME280;10371;49.042;8.002;2023-02-21T06:13:32;100347.16;;;2.70;100.00
20424;BME280;10371;49.042;8.002;2023-02-21T06:14:33;100343.88;;;2.66;100.00
20424;BME280;10371;49.042;8.002;2023-02-21T06:15:33;100344.97;;;2.61;100.00
20424;BME280;10371;49.042;8.002;2023-02-21T06:16:37;100348.31;;;2.63;100.00
20424;BME280;10371;49.042;8.002;2023-02-21T06:17:39;100349.16;;;2.63;100.00
20424;BME280;10371;49.042;8.002;2023-02-21T06:18:39;100346.53;;;2.65;100.00
20424;BME280;10371;49.042;8.002;2023-02-21T06:19:40;100335.53;;;2.61;100.00
20424;BME280;10371;49.042;8.002;2023-02-21T06:20:40;100352.50;;;2.65;100.00
20424;BME280;10371;49.042;8.002;2023-02-21T06:21:41;100348.19;;;2.66;100.00
20424;BME280;10371;49.042;8.002;2023-02-21T06:22:42;100344.81;;;2.65;100.00